Terminal Aerodrome Forecast
Issued by NWS Wilmington, OH

Current Version | Previous Version | Text Only | Print | Product List | Glossary Off
Versions: 1 2 3 4 5 6 7 8 9 10 11 12 13 14 15 16

888
FTUS41 KILN 211028 AAA
TAFDAY
TAF AMD
KDAY 211028Z 2110/2206 28010KT P6SM SCT080
     FM211500 28014G22KT P6SM BKN035
     FM212300 31006KT P6SM SCT250=

USA.gov is the U.S. government's official web portal to all federal, state and local government web resources and services.